createdAt,value
2023-04-18T00:00:29.326Z,96054.00
2023-04-18T00:01:28.310Z,96054.00
2023-04-18T00:02:28.470Z,96052.00
2023-04-18T00:03:29.638Z,96054.00
2023-04-18T00:04:28.516Z,96054.00
2023-04-18T00:05:28.461Z,96048.00
2023-04-18T00:06:29.379Z,96048.00
2023-04-18T00:07:28.637Z,96048.00
2023-04-18T00:08:28.391Z,96048.00
2023-04-18T00:09:29.469Z,96048.00
2023-04-18T00:10:29.487Z,96050.00
2023-04-18T00:11:29.606Z,96050.00
2023-04-18T00:12:29.482Z,96050.00
2023-04-18T00:13:29.490Z,96050.00
2023-04-18T00:14:29.607Z,96050.00
2023-04-18T00:15:29.571Z,96048.00
2023-04-18T00:16:29.505Z,96048.00
2023-04-18T00:17:29.535Z,96044.00
2023-04-18T00:18:29.486Z,96042.00
2023-04-18T00:19:29.528Z,96042.00
2023-04-18T00:20:29.485Z,96042.00
2023-04-18T00:21:28.499Z,96042.00
2023-04-18T00:22:29.538Z,96044.00
2023-04-18T00:23:29.517Z,96042.00
2023-04-18T00:24:29.551Z,96044.00
2023-04-18T00:25:29.560Z,96046.00
2023-04-18T00:26:29.540Z,96048.00
2023-04-18T00:27:28.589Z,96048.00
2023-04-18T00:28:28.559Z,96048.00
2023-04-18T00:29:28.661Z,96048.00
2023-04-18T00:30:28.572Z,96048.00
2023-04-18T00:31:28.614Z,96046.00
2023-04-18T00:32:28.642Z,96044.00
2023-04-18T00:33:29.597Z,96046.00
2023-04-18T00:34:28.618Z,96046.00
2023-04-18T00:35:28.616Z,96042.00
2023-04-18T00:36:29.643Z,96048.00
2023-04-18T00:37:29.657Z,96048.00
2023-04-18T00:38:29.650Z,96048.00
2023-04-18T00:39:29.666Z,96046.00
2023-04-18T00:40:29.673Z,96048.00
2023-04-18T00:41:28.666Z,96044.00
2023-04-18T00:42:28.701Z,96046.00
2023-04-18T00:43:28.690Z,96044.00
2023-04-18T00:44:28.703Z,96042.00
2023-04-18T00:45:29.751Z,96040.00
2023-04-18T00:46:29.764Z,96042.00
2023-04-18T00:47:28.806Z,96042.00
2023-04-18T00:48:29.763Z,96040.00
2023-04-18T00:49:28.779Z,96042.00
2023-04-18T00:50:29.781Z,96042.00
2023-04-18T00:51:28.786Z,96042.00
2023-04-18T00:52:29.816Z,96042.00
2023-04-18T00:53:28.926Z,96042.00
2023-04-18T00:54:29.896Z,96038.00
2023-04-18T00:55:29.907Z,96038.00
2023-04-18T00:56:29.850Z,96038.00
2023-04-18T00:57:29.849Z,96036.00
2023-04-18T00:58:29.861Z,96036.00
2023-04-18T00:59:28.877Z,96038.00
2023-04-18T01:00:29.885Z,96038.00
2023-04-18T01:01:29.960Z,96038.00
2023-04-18T01:02:30.075Z,96036.00
2023-04-18T01:03:30.289Z,96034.00
2023-04-18T01:04:30.095Z,96032.00
2023-04-18T01:05:28.950Z,96030.00
2023-04-18T01:06:29.982Z,96030.00
2023-04-18T01:07:30.023Z,96032.00
2023-04-18T01:08:30.006Z,96034.00
2023-04-18T01:09:30.073Z,96032.00
2023-04-18T01:10:30.055Z,96029.00
2023-04-18T01:11:30.155Z,96032.00
2023-04-18T01:12:30.157Z,96032.00
2023-04-18T01:13:30.268Z,96032.00
2023-04-18T01:14:31.051Z,96030.00
2023-04-18T01:15:30.377Z,96030.00
2023-04-18T01:16:30.300Z,96029.00
2023-04-18T01:17:30.261Z,96027.00
2023-04-18T01:18:30.262Z,96029.00
2023-04-18T01:19:30.232Z,96025.00
2023-04-18T01:20:30.261Z,96023.00
2023-04-18T01:21:29.354Z,96027.00
2023-04-18T01:22:29.258Z,96023.00
2023-04-18T01:23:29.240Z,96025.00
2023-04-18T01:24:30.207Z,96025.00
2023-04-18T01:25:30.214Z,96025.00
2023-04-18T01:26:30.253Z,96025.00
2023-04-18T01:27:30.250Z,96021.00
2023-04-18T01:28:29.271Z,96023.00
2023-04-18T01:29:29.284Z,96019.00
2023-04-18T01:30:30.299Z,96017.00
2023-04-18T01:31:30.338Z,96019.00
2023-04-18T01:32:29.360Z,96019.00
2023-04-18T01:33:29.374Z,96017.00
2023-04-18T01:34:30.368Z,96017.00
2023-04-18T01:35:30.403Z,96017.00
2023-04-18T01:36:30.427Z,96015.00
2023-04-18T01:37:30.423Z,96015.00
2023-04-18T01:38:30.584Z,96015.00
2023-04-18T01:39:30.562Z,96015.00
2023-04-18T01:40:29.471Z,96015.00
2023-04-18T01:41:30.565Z,96013.00
2023-04-18T01:42:29.554Z,96013.00
2023-04-18T01:43:30.520Z,96013.00
2023-04-18T01:44:30.558Z,96013.00
2023-04-18T01:45:30.474Z,96011.00
2023-04-18T01:46:29.470Z,96009.00
2023-04-18T01:47:29.481Z,96013.00
2023-04-18T01:48:30.468Z,96011.00
2023-04-18T01:49:30.504Z,96013.00
2023-04-18T01:50:30.483Z,96011.00
2023-04-18T01:51:29.496Z,96013.00
2023-04-18T01:52:30.518Z,96011.00
2023-04-18T01:53:30.499Z,96015.00
2023-04-18T01:54:29.484Z,96015.00
2023-04-18T01:55:29.483Z,96011.00
2023-04-18T01:56:30.495Z,96013.00
2023-04-18T01:57:30.510Z,96011.00
2023-04-18T01:58:30.514Z,96013.00
2023-04-18T01:59:29.520Z,96011.00
2023-04-18T02:00:30.550Z,96009.00
2023-04-18T02:01:30.504Z,96013.00
2023-04-18T02:02:30.685Z,96011.00
2023-04-18T02:03:30.881Z,96009.00
2023-04-18T02:04:30.534Z,96009.00
2023-04-18T02:05:30.565Z,96013.00
2023-04-18T02:06:30.546Z,96013.00
2023-04-18T02:07:29.538Z,96011.00
2023-04-18T02:08:29.538Z,96009.00
2023-04-18T02:09:30.534Z,96013.00
2023-04-18T02:10:30.511Z,96009.00
2023-04-18T02:11:30.523Z,96011.00
2023-04-18T02:12:30.507Z,96009.00
2023-04-18T02:13:30.517Z,96009.00
2023-04-18T02:14:30.507Z,96011.00
2023-04-18T02:15:30.542Z,96011.00
2023-04-18T02:16:30.598Z,96011.00
2023-04-18T02:17:30.545Z,96011.00
2023-04-18T02:18:30.515Z,96007.00
2023-04-18T02:19:30.509Z,96009.00
2023-04-18T02:20:29.496Z,96011.00
2023-04-18T02:21:29.605Z,96011.00
2023-04-18T02:22:29.518Z,96013.00
2023-04-18T02:23:30.516Z,96013.00
2023-04-18T02:24:30.524Z,96013.00
2023-04-18T02:25:30.545Z,96015.00
2023-04-18T02:26:29.536Z,96013.00
2023-04-18T02:27:29.573Z,96013.00
2023-04-18T02:28:30.556Z,96017.00
2023-04-18T02:29:29.583Z,96015.00
2023-04-18T02:30:30.603Z,96011.00
2023-04-18T02:31:30.672Z,96011.00
2023-04-18T02:32:29.642Z,96015.00
2023-04-18T02:33:30.623Z,96009.00
2023-04-18T02:34:29.747Z,96009.00
2023-04-18T02:35:30.782Z,96011.00
2023-04-18T02:36:29.837Z,96009.00
2023-04-18T02:37:29.926Z,96009.00
2023-04-18T02:38:30.962Z,96009.00
2023-04-18T02:39:30.956Z,96011.00
2023-04-18T02:40:30.984Z,96013.00
2023-04-18T02:41:30.064Z,96011.00
2023-04-18T02:42:30.145Z,96011.00
2023-04-18T02:43:30.155Z,96013.00
2023-04-18T02:44:30.281Z,96011.00
2023-04-18T02:45:30.183Z,96015.00
2023-04-18T02:46:31.325Z,96015.00
2023-04-18T02:47:33.311Z,96013.00
2023-04-18T02:48:31.292Z,96011.00
2023-04-18T02:49:31.227Z,96011.00
2023-04-18T02:50:31.257Z,96013.00
2023-04-18T02:51:30.229Z,96015.00
2023-04-18T02:52:31.269Z,96013.00
2023-04-18T02:53:31.191Z,96011.00
2023-04-18T02:54:31.210Z,96015.00
2023-04-18T02:55:31.875Z,96015.00
2023-04-18T02:56:31.191Z,96013.00
2023-04-18T02:57:31.271Z,96015.00
2023-04-18T02:58:31.240Z,96015.00
2023-04-18T02:59:31.233Z,96017.00
2023-04-18T03:00:31.324Z,96013.00
2023-04-18T03:01:31.354Z,96015.00
2023-04-18T03:02:30.503Z,96015.00
2023-04-18T03:03:31.482Z,96013.00
2023-04-18T03:04:31.432Z,96015.00
2023-04-18T03:05:30.427Z,96013.00
2023-04-18T03:06:30.453Z,96013.00
2023-04-18T03:07:31.568Z,96011.00
2023-04-18T03:08:31.560Z,96009.00
2023-04-18T03:09:30.626Z,96009.00
2023-04-18T03:10:31.667Z,96009.00
2023-04-18T03:11:30.680Z,96009.00
2023-04-18T03:12:31.694Z,96011.00
2023-04-18T03:13:31.718Z,96009.00
2023-04-18T03:14:30.796Z,96011.00
2023-04-18T03:15:31.893Z,96011.00
2023-04-18T03:16:31.843Z,96011.00
2023-04-18T03:17:30.927Z,96009.00
2023-04-18T03:18:31.937Z,96011.00
2023-04-18T03:19:30.975Z,96007.00
2023-04-18T03:20:31.009Z,96009.00
2023-04-18T03:21:32.076Z,96009.00
2023-04-18T03:22:31.081Z,96009.00
2023-04-18T03:23:32.185Z,96011.00
2023-04-18T03:24:32.157Z,96015.00
2023-04-18T03:25:31.211Z,96013.00
2023-04-18T03:26:32.226Z,96011.00
2023-04-18T03:27:32.303Z,96011.00
2023-04-18T03:28:32.312Z,96013.00
2023-04-18T03:29:31.320Z,96013.00
2023-04-18T03:30:32.358Z,96013.00
2023-04-18T03:31:32.426Z,96017.00
2023-04-18T03:32:31.412Z,96015.00
2023-04-18T03:33:32.435Z,96015.00
2023-04-18T03:34:32.476Z,96013.00
2023-04-18T03:35:31.497Z,96013.00
2023-04-18T03:36:31.533Z,96011.00
2023-04-18T03:37:32.587Z,96013.00
2023-04-18T03:38:32.603Z,96015.00
2023-04-18T03:39:32.667Z,96017.00
2023-04-18T03:40:32.899Z,96015.00
2023-04-18T03:41:32.799Z,96013.00
2023-04-18T03:42:31.786Z,96013.00
2023-04-18T03:43:32.835Z,96013.00
2023-04-18T03:44:31.896Z,96011.00
2023-04-18T03:45:32.948Z,96011.00
2023-04-18T03:46:33.058Z,96011.00
2023-04-18T03:47:32.066Z,96009.00
2023-04-18T03:48:33.083Z,96007.00
2023-04-18T03:49:33.130Z,96009.00
2023-04-18T03:50:33.178Z,96005.00
2023-04-18T03:51:33.214Z,96007.00
2023-04-18T03:52:32.269Z,96005.00
2023-04-18T03:53:33.284Z,96009.00
2023-04-18T03:54:32.336Z,96007.00
2023-04-18T03:55:32.396Z,96009.00
2023-04-18T03:56:33.462Z,96009.00
2023-04-18T03:57:33.496Z,96011.00
2023-04-18T03:58:32.519Z,96009.00
2023-04-18T03:59:32.567Z,96011.00
2023-04-18T04:00:32.640Z,96015.00
2023-04-18T04:01:33.714Z,96007.00
2023-04-18T04:02:33.867Z,96009.00
2023-04-18T04:03:33.887Z,96009.00
2023-04-18T04:04:32.936Z,96011.00
2023-04-18T04:05:33.943Z,96011.00
2023-04-18T04:06:33.866Z,96009.00
2023-04-18T04:07:33.944Z,96009.00
2023-04-18T04:08:34.077Z,96007.00
2023-04-18T04:09:33.104Z,96007.00
2023-04-18T04:10:34.149Z,96007.00
2023-04-18T04:11:33.149Z,96009.00
2023-04-18T04:12:34.153Z,96009.00
2023-04-18T04:13:34.232Z,96007.00
2023-04-18T04:14:34.346Z,96009.00
2023-04-18T04:15:34.319Z,96009.00
2023-04-18T04:16:34.398Z,96005.00
2023-04-18T04:17:33.531Z,96003.00
2023-04-18T04:18:33.459Z,96005.00
2023-04-18T04:19:33.487Z,96003.00
2023-04-18T04:20:34.614Z,96003.00
2023-04-18T04:21:34.549Z,96005.00
2023-04-18T04:22:34.725Z,96003.00
2023-04-18T04:23:34.764Z,96003.00
2023-04-18T04:24:34.769Z,96007.00
2023-04-18T04:25:34.925Z,96005.00
2023-04-18T04:26:33.997Z,96007.00
2023-04-18T04:27:34.847Z,96005.00
2023-04-18T04:28:34.980Z,96001.00
2023-04-18T04:29:34.992Z,96003.00
2023-04-18T04:30:34.987Z,96001.00
2023-04-18T04:31:34.106Z,96003.00
2023-04-18T04:32:35.263Z,96003.00
2023-04-18T04:33:35.205Z,96003.00
2023-04-18T04:34:34.203Z,96003.00
2023-04-18T04:35:35.295Z,96001.00
2023-04-18T04:36:35.264Z,96005.00
2023-04-18T04:37:35.326Z,96005.00
2023-04-18T04:38:35.365Z,96005.00
2023-04-18T04:39:34.382Z,96011.00
2023-04-18T04:40:35.443Z,96011.00
2023-04-18T04:41:34.463Z,96011.00
2023-04-18T04:42:35.467Z,96009.00
2023-04-18T04:43:35.505Z,96011.00
2023-04-18T04:44:34.672Z,96013.00
2023-04-18T04:45:34.677Z,96013.00
2023-04-18T04:46:35.679Z,96015.00
2023-04-18T04:47:34.765Z,96013.00
2023-04-18T04:48:35.762Z,96017.00
2023-04-18T04:49:35.849Z,96015.00
2023-04-18T04:50:35.851Z,96013.00
2023-04-18T04:51:35.834Z,96015.00
2023-04-18T04:52:35.912Z,96017.00
2023-04-18T04:53:35.910Z,96019.00
2023-04-18T04:54:35.988Z,96021.00
2023-04-18T04:55:35.994Z,96023.00
2023-04-18T04:56:36.078Z,96023.00
2023-04-18T04:57:35.128Z,96023.00
2023-04-18T04:58:36.196Z,96023.00
2023-04-18T04:59:36.247Z,96023.00
2023-04-18T05:00:36.334Z,96021.00
2023-04-18T05:01:35.432Z,96023.00
2023-04-18T05:02:36.644Z,96023.00
2023-04-18T05:03:36.795Z,96023.00
2023-04-18T05:04:36.670Z,96023.00
2023-04-18T05:05:36.617Z,96023.00
2023-04-18T05:06:35.671Z,96025.00
2023-04-18T05:07:35.753Z,96027.00
2023-04-18T05:08:35.783Z,96029.00
2023-04-18T05:09:36.910Z,96029.00
2023-04-18T05:10:35.928Z,96025.00
2023-04-18T05:11:36.997Z,96027.00
2023-04-18T05:12:37.065Z,96027.00
2023-04-18T05:13:36.099Z,96030.00
2023-04-18T05:14:37.219Z,96029.00
2023-04-18T05:15:37.274Z,96030.00
2023-04-18T05:16:37.339Z,96032.00
2023-04-18T05:17:36.419Z,96032.00
2023-04-18T05:18:37.426Z,96034.00
2023-04-18T05:19:36.474Z,96032.00
2023-04-18T05:20:36.556Z,96032.00
2023-04-18T05:21:37.618Z,96034.00
2023-04-18T05:22:36.680Z,96032.00
2023-04-18T05:23:36.707Z,96032.00
2023-04-18T05:24:37.811Z,96032.00
2023-04-18T05:25:36.845Z,96036.00
2023-04-18T05:26:37.915Z,96036.00
2023-04-18T05:27:37.945Z,96036.00
2023-04-18T05:28:38.519Z,96040.00
2023-04-18T05:29:37.087Z,96040.00
2023-04-18T05:30:38.157Z,96040.00
2023-04-18T05:31:37.198Z,96034.00
2023-04-18T05:32:37.329Z,96042.00
2023-04-18T05:33:38.300Z,96044.00
2023-04-18T05:34:39.003Z,96046.00
2023-04-18T05:35:38.512Z,96044.00
2023-04-18T05:36:44.309Z,96044.00
2023-04-18T05:37:38.312Z,96044.00
2023-04-18T05:38:37.297Z,96046.00
2023-04-18T05:39:38.330Z,96044.00
2023-04-18T05:40:38.283Z,96044.00
2023-04-18T05:41:38.268Z,96048.00
2023-04-18T05:42:38.258Z,96046.00
2023-04-18T05:43:38.257Z,96052.00
2023-04-18T05:44:37.252Z,96046.00
2023-04-18T05:45:37.247Z,96048.00
2023-04-18T05:46:37.314Z,96048.00
2023-04-18T05:47:38.254Z,96048.00
2023-04-18T05:48:37.284Z,96052.00
2023-04-18T05:49:38.209Z,96050.00
2023-04-18T05:50:38.202Z,96048.00
2023-04-18T05:51:38.201Z,96048.00
2023-04-18T05:52:37.193Z,96050.00
2023-04-18T05:53:38.185Z,96050.00
2023-04-18T05:54:38.175Z,96056.00
2023-04-18T05:55:38.169Z,96060.00
2023-04-18T05:56:38.166Z,96058.00
2023-04-18T05:57:38.172Z,96056.00
2023-04-18T05:58:38.148Z,96058.00
2023-04-18T05:59:37.174Z,96060.00
2023-04-18T06:00:38.552Z,96060.00
2023-04-18T06:01:38.137Z,96058.00
2023-04-18T06:02:38.282Z,96060.00
2023-04-18T06:03:38.402Z,96058.00
2023-04-18T06:04:38.338Z,96058.00
2023-04-18T06:05:38.391Z,96058.00
2023-04-18T06:06:38.120Z,96062.00
2023-04-18T06:07:38.127Z,96062.00
2023-04-18T06:08:38.080Z,96062.00
2023-04-18T06:09:38.073Z,96060.00
2023-04-18T06:10:39.232Z,96062.00
2023-04-18T06:11:37.057Z,96062.00
2023-04-18T06:12:38.080Z,96060.00
2023-04-18T06:13:37.145Z,96062.00
2023-04-18T06:14:38.161Z,96066.00
2023-04-18T06:15:38.209Z,96068.00
2023-04-18T06:16:38.347Z,96068.00
2023-04-18T06:17:37.333Z,96068.00
2023-04-18T06:18:38.377Z,96069.00
2023-04-18T06:19:37.391Z,96071.00
2023-04-18T06:20:38.452Z,96071.00
2023-04-18T06:21:38.460Z,96073.00
2023-04-18T06:22:38.569Z,96071.00
2023-04-18T06:23:38.599Z,96073.00
2023-04-18T06:24:37.573Z,96075.00
2023-04-18T06:25:38.625Z,96071.00
2023-04-18T06:26:37.643Z,96071.00
2023-04-18T06:27:38.673Z,96071.00
2023-04-18T06:28:38.693Z,96071.00
2023-04-18T06:29:38.741Z,96073.00
2023-04-18T06:30:38.789Z,96075.00
2023-04-18T06:31:37.845Z,96077.00
2023-04-18T06:32:38.853Z,96083.00
2023-04-18T06:33:38.875Z,96083.00
2023-04-18T06:34:38.890Z,96081.00
2023-04-18T06:35:38.922Z,96085.00
2023-04-18T06:36:39.034Z,96083.00
2023-04-18T06:37:37.991Z,96081.00
2023-04-18T06:38:39.035Z,96083.00
2023-04-18T06:39:39.034Z,96079.00
2023-04-18T06:40:39.066Z,96079.00
2023-04-18T06:41:38.095Z,96079.00
2023-04-18T06:42:38.108Z,96079.00
2023-04-18T06:43:41.129Z,96079.00
2023-04-18T06:44:39.147Z,96077.00
2023-04-18T06:45:39.179Z,96077.00
2023-04-18T06:46:38.142Z,96079.00
2023-04-18T06:47:39.147Z,96077.00
2023-04-18T06:48:39.104Z,96077.00
2023-04-18T06:49:38.090Z,96077.00
2023-04-18T06:50:38.116Z,96077.00
2023-04-18T06:51:38.094Z,96075.00
2023-04-18T06:52:38.106Z,96075.00
2023-04-18T06:53:39.068Z,96071.00
2023-04-18T06:54:39.072Z,96071.00
2023-04-18T06:55:39.550Z,96071.00
2023-04-18T06:56:39.076Z,96073.00
2023-04-18T06:57:39.043Z,96071.00
2023-04-18T06:58:38.029Z,96069.00
2023-04-18T06:59:39.035Z,96073.00
2023-04-18T07:00:39.020Z,96075.00
2023-04-18T07:01:39.091Z,96073.00
2023-04-18T07:02:39.110Z,96071.00
2023-04-18T07:03:39.144Z,96071.00
2023-04-18T07:04:39.267Z,96073.00
2023-04-18T07:05:38.982Z,96073.00
2023-04-18T07:06:38.980Z,96073.00
2023-04-18T07:07:38.983Z,96071.00
2023-04-18T07:08:38.015Z,96071.00
2023-04-18T07:09:38.955Z,96071.00
2023-04-18T07:10:39.059Z,96071.00
2023-04-18T07:11:38.944Z,96069.00
2023-04-18T07:12:37.934Z,96071.00
2023-04-18T07:13:37.913Z,96073.00
2023-04-18T07:14:37.911Z,96071.00
2023-04-18T07:15:38.972Z,96073.00
2023-04-18T07:16:39.026Z,96073.00
2023-04-18T07:17:39.044Z,96073.00
2023-04-18T07:18:39.076Z,96073.00
2023-04-18T07:19:39.129Z,96071.00
2023-04-18T07:20:39.181Z,96071.00
2023-04-18T07:21:39.236Z,96071.00
2023-04-18T07:22:39.300Z,96069.00
2023-04-18T07:23:39.346Z,96071.00
2023-04-18T07:24:39.648Z,96071.00
2023-04-18T07:25:39.486Z,96071.00
2023-04-18T07:26:39.534Z,96071.00
2023-04-18T07:27:38.587Z,96071.00
2023-04-18T07:28:39.659Z,96071.00
2023-04-18T07:29:38.716Z,96071.00
2023-04-18T07:30:39.801Z,96071.00
2023-04-18T07:31:38.818Z,96069.00
2023-04-18T07:32:39.892Z,96069.00
2023-04-18T07:33:39.927Z,96069.00
2023-04-18T07:34:39.957Z,96071.00
2023-04-18T07:35:40.006Z,96073.00
2023-04-18T07:36:40.044Z,96077.00
2023-04-18T07:37:39.095Z,96073.00
2023-04-18T07:38:40.142Z,96077.00
2023-04-18T07:39:40.174Z,96075.00
2023-04-18T07:40:39.309Z,96075.00
2023-04-18T07:41:40.258Z,96073.00
2023-04-18T07:42:40.301Z,96073.00
2023-04-18T07:43:40.346Z,96071.00
2023-04-18T07:44:40.346Z,96071.00
2023-04-18T07:45:39.384Z,96071.00
2023-04-18T07:46:40.485Z,96069.00
2023-04-18T07:47:39.410Z,96071.00
2023-04-18T07:48:40.447Z,96075.00
2023-04-18T07:49:40.513Z,96073.00
2023-04-18T07:50:39.610Z,96071.00
2023-04-18T07:51:40.477Z,96073.00
2023-04-18T07:52:39.686Z,96071.00
2023-04-18T07:53:40.541Z,96075.00
2023-04-18T07:54:39.548Z,96071.00
2023-04-18T07:55:40.596Z,96073.00
2023-04-18T07:56:40.773Z,96075.00
2023-04-18T07:57:40.661Z,96077.00
2023-04-18T07:58:40.680Z,96075.00
2023-04-18T07:59:40.714Z,96073.00
2023-04-18T08:00:40.715Z,96073.00
2023-04-18T08:01:40.743Z,96075.00
2023-04-18T08:02:40.898Z,96073.00
2023-04-18T08:03:40.950Z,96075.00
2023-04-18T08:04:41.231Z,96071.00
2023-04-18T08:05:40.998Z,96077.00
2023-04-18T08:06:40.015Z,96073.00
2023-04-18T08:07:40.084Z,96077.00
2023-04-18T08:08:40.125Z,96075.00
2023-04-18T08:09:40.237Z,96075.00
2023-04-18T08:10:40.191Z,96079.00
2023-04-18T08:11:41.269Z,96075.00
2023-04-18T08:12:40.490Z,96075.00
2023-04-18T08:13:41.323Z,96079.00
2023-04-18T08:14:41.369Z,96079.00
2023-04-18T08:15:40.405Z,96079.00
2023-04-18T08:16:40.506Z,96081.00
2023-04-18T08:17:40.525Z,96079.00
2023-04-18T08:18:41.512Z,96081.00
2023-04-18T08:19:41.535Z,96083.00
2023-04-18T08:20:41.583Z,96079.00
2023-04-18T08:21:41.603Z,96079.00
2023-04-18T08:22:57.786Z,96081.00
2023-04-18T08:23:41.619Z,96081.00
2023-04-18T08:24:44.545Z,96081.00
2023-04-18T08:25:41.633Z,96081.00
2023-04-18T08:26:40.593Z,96079.00
2023-04-18T08:27:41.605Z,96079.00
2023-04-18T08:28:42.260Z,96079.00
2023-04-18T08:29:41.742Z,96081.00
2023-04-18T08:30:40.775Z,96081.00
2023-04-18T08:31:41.871Z,96079.00
2023-04-18T08:32:41.813Z,96081.00
2023-04-18T08:33:41.746Z,96083.00
2023-04-18T08:34:41.761Z,96081.00
2023-04-18T08:35:40.811Z,96081.00
2023-04-18T08:36:41.833Z,96083.00
2023-04-18T08:37:40.835Z,96085.00
2023-04-18T08:38:41.855Z,96081.00
2023-04-18T08:39:40.854Z,96081.00
2023-04-18T08:40:41.884Z,96081.00
2023-04-18T08:41:41.879Z,96079.00
2023-04-18T08:42:41.869Z,96083.00
2023-04-18T08:43:41.895Z,96085.00
2023-04-18T08:44:40.927Z,96085.00
2023-04-18T08:45:42.164Z,96097.00
2023-04-18T08:46:41.914Z,96087.00
2023-04-18T08:47:41.976Z,96085.00
2023-04-18T08:48:41.909Z,96087.00
2023-04-18T08:49:41.926Z,96083.00
2023-04-18T08:50:41.940Z,96089.00
2023-04-18T08:51:40.950Z,96087.00
2023-04-18T08:52:41.972Z,96085.00
2023-04-18T08:53:42.077Z,96081.00
2023-04-18T08:54:42.084Z,96083.00
2023-04-18T08:55:42.083Z,96079.00
2023-04-18T08:56:42.612Z,96077.00
2023-04-18T08:57:41.168Z,96081.00
2023-04-18T08:58:41.200Z,96081.00
2023-04-18T08:59:43.755Z,96077.00
2023-04-18T09:00:42.483Z,96081.00
2023-04-18T09:01:42.241Z,96077.00
2023-04-18T09:02:42.449Z,96081.00
2023-04-18T09:03:41.244Z,96081.00
2023-04-18T09:04:41.224Z,96083.00
2023-04-18T09:05:41.196Z,96083.00
2023-04-18T09:06:42.177Z,96085.00
2023-04-18T09:07:41.173Z,96085.00
2023-04-18T09:08:42.160Z,96085.00
2023-04-18T09:09:41.165Z,96085.00
2023-04-18T09:10:41.154Z,96085.00
2023-04-18T09:11:41.139Z,96079.00
2023-04-18T09:12:42.130Z,96081.00
2023-04-18T09:13:42.111Z,96081.00
2023-04-18T09:14:42.115Z,96081.00
2023-04-18T09:15:41.092Z,96081.00
2023-04-18T09:16:42.199Z,96079.00
2023-04-18T09:17:42.094Z,96079.00
2023-04-18T09:18:42.080Z,96079.00
2023-04-18T09:19:42.062Z,96079.00
2023-04-18T09:20:42.104Z,96075.00
2023-04-18T09:21:42.153Z,96077.00
2023-04-18T09:22:42.256Z,96075.00
2023-04-18T09:23:42.265Z,96075.00
2023-04-18T09:24:42.320Z,96077.00
2023-04-18T09:25:44.560Z,96073.00
2023-04-18T09:26:42.396Z,96075.00
2023-04-18T09:27:42.433Z,96073.00
2023-04-18T09:28:42.418Z,96075.00
2023-04-18T09:29:42.368Z,96073.00
2023-04-18T09:30:42.485Z,96077.00
2023-04-18T09:31:41.348Z,96071.00
2023-04-18T09:32:42.420Z,96071.00
2023-04-18T09:33:41.318Z,96073.00
2023-04-18T09:34:42.320Z,96068.00
2023-04-18T09:35:42.324Z,96068.00
2023-04-18T09:36:41.346Z,96068.00
2023-04-18T09:37:42.301Z,96069.00
2023-04-18T09:38:41.376Z,96069.00
2023-04-18T09:39:42.281Z,96068.00
2023-04-18T09:40:42.294Z,96062.00
2023-04-18T09:41:41.290Z,96064.00
2023-04-18T09:42:41.274Z,96068.00
2023-04-18T09:43:42.253Z,96066.00
2023-04-18T09:44:42.244Z,96064.00
2023-04-18T09:45:42.239Z,96064.00
2023-04-18T09:46:45.152Z,96058.00
2023-04-18T09:47:42.389Z,96052.00
2023-04-18T09:48:42.376Z,96058.00
2023-04-18T09:49:42.380Z,96054.00
2023-04-18T09:50:41.429Z,96058.00
2023-04-18T09:51:42.617Z,96054.00
2023-04-18T09:52:42.560Z,96056.00
2023-04-18T09:53:42.600Z,96058.00
2023-04-18T09:54:41.655Z,96056.00
2023-04-18T09:55:42.718Z,96054.00
2023-04-18T09:56:42.105Z,96054.00
2023-04-18T09:57:41.842Z,96054.00
2023-04-18T09:58:42.875Z,96058.00
2023-04-18T09:59:42.935Z,96056.00
2023-04-18T10:00:41.984Z,96058.00
2023-04-18T10:01:43.076Z,96056.00
2023-04-18T10:02:43.197Z,96058.00
2023-04-18T10:03:43.243Z,96060.00
2023-04-18T10:04:43.472Z,96058.00
2023-04-18T10:05:42.444Z,96056.00
2023-04-18T10:06:43.364Z,96054.00
2023-04-18T10:07:43.411Z,96056.00
2023-04-18T10:08:43.494Z,96056.00
2023-04-18T10:09:43.542Z,96056.00
2023-04-18T10:10:43.616Z,96056.00
2023-04-18T10:11:42.685Z,96056.00
2023-04-18T10:12:42.748Z,96056.00
2023-04-18T10:13:43.805Z,96058.00
2023-04-18T10:14:43.855Z,96058.00
2023-04-18T10:15:44.469Z,96058.00
2023-04-18T10:16:44.016Z,96052.00
2023-04-18T10:17:56.059Z,96052.00
2023-04-18T10:18:44.035Z,96052.00
2023-04-18T10:19:44.007Z,96050.00
2023-04-18T10:20:44.297Z,96050.00
2023-04-18T10:21:43.995Z,96046.00
2023-04-18T10:22:43.994Z,96050.00
2023-04-18T10:23:43.988Z,96048.00
2023-04-18T10:24:42.986Z,96050.00
2023-04-18T10:25:43.977Z,96050.00
2023-04-18T10:26:42.984Z,96046.00
2023-04-18T10:27:43.979Z,96052.00
2023-04-18T10:28:43.951Z,96050.00
2023-04-18T10:29:43.940Z,96048.00
2023-04-18T10:30:42.929Z,96048.00
2023-04-18T10:31:42.958Z,96046.00
2023-04-18T10:32:43.941Z,96046.00
2023-04-18T10:33:46.946Z,96046.00
2023-04-18T10:34:43.926Z,96046.00
2023-04-18T10:35:43.901Z,96046.00
2023-04-18T10:36:42.912Z,96046.00
2023-04-18T10:37:43.890Z,96044.00
2023-04-18T10:38:43.993Z,96046.00
2023-04-18T10:39:43.874Z,96046.00
2023-04-18T10:40:43.860Z,96042.00
2023-04-18T10:41:44.131Z,96038.00
2023-04-18T10:42:43.852Z,96042.00
2023-04-18T10:43:43.843Z,96040.00
2023-04-18T10:44:42.833Z,96036.00
2023-04-18T10:45:43.866Z,96038.00
2023-04-18T10:46:44.191Z,96038.00
2023-04-18T10:47:44.010Z,96034.00
2023-04-18T10:48:42.810Z,96034.00
2023-04-18T10:49:42.825Z,96034.00
2023-04-18T10:50:43.797Z,96034.00
2023-04-18T10:51:43.799Z,96036.00
2023-04-18T10:52:42.797Z,96034.00
2023-04-18T10:53:42.777Z,96034.00
2023-04-18T10:54:42.790Z,96038.00
2023-04-18T10:55:43.755Z,96036.00
2023-04-18T10:56:43.783Z,96034.00
2023-04-18T10:57:43.732Z,96032.00
2023-04-18T10:58:42.740Z,96032.00
2023-04-18T10:59:43.779Z,96032.00
2023-04-18T11:00:43.777Z,96030.00
2023-04-18T11:01:42.733Z,96030.00
2023-04-18T11:02:43.869Z,96027.00
2023-04-18T11:03:43.834Z,96030.00
2023-04-18T11:04:43.690Z,96027.00
2023-04-18T11:05:42.684Z,96029.00
2023-04-18T11:06:42.670Z,96032.00
2023-04-18T11:07:43.661Z,96029.00
2023-04-18T11:08:43.697Z,96025.00
2023-04-18T11:09:45.473Z,96021.00
2023-04-18T11:10:43.652Z,96023.00
2023-04-18T11:11:42.638Z,96027.00
2023-04-18T11:12:42.623Z,96025.00
2023-04-18T11:13:43.632Z,96025.00
2023-04-18T11:14:42.619Z,96021.00
2023-04-18T11:15:42.616Z,96019.00
2023-04-18T11:16:43.678Z,96021.00
2023-04-18T11:17:43.631Z,96019.00
2023-04-18T11:18:43.576Z,96019.00
2023-04-18T11:19:43.569Z,96017.00
2023-04-18T11:20:43.574Z,96017.00
2023-04-18T11:21:43.587Z,96015.00
2023-04-18T11:22:43.565Z,96011.00
2023-04-18T11:23:42.568Z,96011.00
2023-04-18T11:24:43.689Z,96011.00
2023-04-18T11:25:43.547Z,96013.00
2023-04-18T11:26:43.541Z,96005.00
2023-04-18T11:27:43.544Z,96005.00
2023-04-18T11:28:43.553Z,96001.00
2023-04-18T11:29:42.513Z,96007.00
2023-04-18T11:30:43.513Z,96007.00
2023-04-18T11:31:42.525Z,96007.00
2023-04-18T11:32:43.535Z,96007.00
2023-04-18T11:33:43.488Z,96013.00
2023-04-18T11:34:43.534Z,96009.00
2023-04-18T11:35:43.465Z,96015.00
2023-04-18T11:36:42.469Z,96015.00
2023-04-18T11:37:44.193Z,96015.00
2023-04-18T11:38:42.463Z,96011.00
2023-04-18T11:39:43.443Z,96017.00
2023-04-18T11:40:43.477Z,96021.00
2023-04-18T11:41:43.418Z,96013.00
2023-04-18T11:42:42.454Z,96011.00
2023-04-18T11:43:42.401Z,96009.00
2023-04-18T11:44:42.397Z,96011.00